Time;durP1;ratioP1;P1;durP2;ratioP2;P2;SDS_P1;SDS_P2;PMS_P1;PMS_P2;Temp;Humidity;BMP_temperature;BMP_pressure;BME280_temperature;BME280_humidity;BME280_pressure;Samples;Min_cycle;Max_cycle;Signal;HPM_P1;HPM_P2
2022/11/13 00:01:45;;;;;;;;;;;9.50;99.90;;;;;;5100968;28;19915;-33
2022/11/13 00:04:11;;;;;;;;;;;9.50;99.90;;;;;;5101566;28;19908;-32
2022/11/13 00:06:36;;;;;;;;;;;9.50;99.90;;;;;;5096474;28;19916;-32
2022/11/13 00:09:02;;;;;;;;;;;9.40;99.90;;;;;;5093640;28;20310;-53
2022/11/13 00:11:28;;;;;;;;;;;9.40;99.90;;;;;;5105480;28;19908;-32
2022/11/13 00:13:53;;;;;;;;;;;9.40;99.90;;;;;;5100517;28;19961;-32
2022/11/13 00:16:19;;;;;;;;;;;9.40;99.90;;;;;;5102131;28;19922;-36
2022/11/13 00:18:45;;;;;;;;;;;9.30;99.90;;;;;;5100866;28;19940;-34
2022/11/13 00:21:15;;;;;;;;;;;9.30;99.90;;;;;;5096685;28;20265;-31
2022/11/13 00:23:41;;;;;;;;;;;9.30;99.90;;;;;;5106544;28;20367;-33
2022/11/13 00:26:08;;;;;;;;;;;9.30;99.90;;;;;;5097168;28;19923;-32
2022/11/13 00:28:34;;;;;;;;;;;9.20;99.90;;;;;;5102649;28;19912;-33
2022/11/13 00:31:00;;;;;;;;;;;9.20;99.90;;;;;;5097446;28;20409;-34
2022/11/13 00:33:26;;;;;;;;;;;9.10;99.90;;;;;;5105303;28;19908;-36
2022/11/13 00:35:51;;;;;;;;;;;9.10;99.90;;;;;;5094934;28;20303;-32
2022/11/13 00:38:17;;;;;;;;;;;9.10;99.90;;;;;;5110515;28;19908;-33
2022/11/13 00:40:42;;;;;;;;;;;9.10;99.90;;;;;;5098505;28;19953;-34
2022/11/13 00:43:08;;;;;;;;;;;9.10;99.90;;;;;;5094082;28;19908;-33
2022/11/13 00:45:33;;;;;;;;;;;9.00;99.90;;;;;;5102097;28;20363;-35
2022/11/13 00:47:59;;;;;;;;;;;9.00;99.90;;;;;;5103690;28;20002;-31
2022/11/13 00:50:24;;;;;;;;;;;9.00;99.90;;;;;;5125355;27;19904;-32
2022/11/13 00:52:50;;;;;;;;;;;9.00;99.90;;;;;;5103264;27;20296;-33
2022/11/13 00:55:15;;;;;;;;;;;9.00;99.90;;;;;;5106374;28;20401;-33
2022/11/13 00:57:41;;;;;;;;;;;9.00;99.90;;;;;;5097616;28;19996;-34
2022/11/13 01:00:06;;;;;;;;;;;9.00;99.90;;;;;;5097216;28;19908;-34
2022/11/13 01:02:32;;;;;;;;;;;8.90;99.90;;;;;;5096864;28;19908;-34
2022/11/13 01:04:57;;;;;;;;;;;8.90;99.90;;;;;;5095534;28;20472;-33
2022/11/13 01:07:23;;;;;;;;;;;8.90;99.90;;;;;;5107823;28;20049;-32
2022/11/13 01:09:49;;;;;;;;;;;8.90;99.90;;;;;;5100435;28;19908;-37
2022/11/13 01:12:15;;;;;;;;;;;8.90;99.90;;;;;;5104898;28;20323;-34
2022/11/13 01:14:40;;;;;;;;;;;8.90;99.90;;;;;;5106525;28;19937;-34
2022/11/13 01:17:06;;;;;;;;;;;8.90;99.90;;;;;;5113747;28;19953;-35
2022/11/13 01:19:31;;;;;;;;;;;8.80;99.90;;;;;;5111120;28;19908;-40
2022/11/13 01:21:56;;;;;;;;;;;8.80;99.90;;;;;;5114742;28;19919;-31
2022/11/13 01:24:22;;;;;;;;;;;8.90;99.90;;;;;;5106822;28;19943;-39
2022/11/13 01:26:47;;;;;;;;;;;8.80;99.90;;;;;;5103046;28;20378;-32
2022/11/13 01:29:13;;;;;;;;;;;8.80;99.90;;;;;;5105019;28;19912;-31
2022/11/13 01:31:38;;;;;;;;;;;8.80;99.90;;;;;;5104130;28;19947;-32
2022/11/13 01:34:04;;;;;;;;;;;8.80;99.90;;;;;;5099713;28;20010;-32
2022/11/13 01:36:29;;;;;;;;;;;8.80;99.90;;;;;;5096715;28;19912;-31
2022/11/13 01:38:55;;;;;;;;;;;8.80;99.90;;;;;;5115715;27;20352;-33
2022/11/13 01:41:22;;;;;;;;;;;8.70;99.90;;;;;;5098474;28;19907;-32
2022/11/13 01:43:47;;;;;;;;;;;8.80;99.90;;;;;;5098858;28;20366;-31
2022/11/13 01:46:16;;;;;;;;;;;8.70;99.90;;;;;;5102125;28;19962;-32
2022/11/13 01:48:44;;;;;;;;;;;8.70;99.90;;;;;;5098950;28;19915;-35
2022/11/13 01:51:15;;;;;;;;;;;8.70;99.90;;;;;;5109909;28;19907;-37
2022/11/13 01:53:42;;;;;;;;;;;8.70;99.90;;;;;;5118068;27;19920;-32
2022/11/13 01:56:08;;;;;;;;;;;8.70;99.90;;;;;;5105532;28;20347;-35
2022/11/13 01:58:34;;;;;;;;;;;8.70;99.90;;;;;;5115518;27;19947;-34
2022/11/13 02:00:59;;;;;;;;;;;8.70;99.90;;;;;;5106853;28;19907;-32
2022/11/13 02:03:25;;;;;;;;;;;8.70;99.90;;;;;;5098483;28;19919;-32
2022/11/13 02:05:52;;;;;;;;;;;8.70;99.90;;;;;;5096144;28;19962;-32
2022/11/13 02:08:17;;;;;;;;;;;8.70;99.90;;;;;;5099713;28;19908;-31
2022/11/13 02:10:43;;;;;;;;;;;8.70;99.90;;;;;;5100958;28;19915;-32
2022/11/13 02:13:09;;;;;;;;;;;9.00;99.90;;;;;;5101393;28;19915;-31
2022/11/13 02:15:35;;;;;;;;;;;9.20;99.90;;;;;;5103740;28;19915;-34
2022/11/13 02:18:01;;;;;;;;;;;9.30;99.90;;;;;;5105416;28;19919;-57
2022/11/13 02:20:32;;;;;;;;;;;9.30;99.90;;;;;;5099640;28;19998;-39
2022/11/13 02:23:12;;;;;;;;;;;9.20;99.90;;;;;;5096132;28;19919;-40
2022/11/13 02:25:39;;;;;;;;;;;9.10;99.90;;;;;;5107742;28;19923;-36
2022/11/13 02:28:04;;;;;;;;;;;9.10;99.90;;;;;;5095783;28;20383;-31
2022/11/13 02:30:31;;;;;;;;;;;9.00;99.90;;;;;;5101692;28;19998;-37
2022/11/13 02:32:57;;;;;;;;;;;9.00;99.90;;;;;;5092561;28;19934;-33
2022/11/13 02:35:41;;;;;;;;;;;8.90;99.90;;;;;;5107227;28;19908;-32
2022/11/13 02:38:06;;;;;;;;;;;8.80;99.90;;;;;;5094834;28;20153;-32
2022/11/13 02:40:33;;;;;;;;;;;8.80;99.90;;;;;;5096615;28;19940;-32
2022/11/13 02:42:58;;;;;;;;;;;8.80;99.90;;;;;;5095663;28;20430;-37
2022/11/13 02:45:24;;;;;;;;;;;8.80;99.90;;;;;;5113811;28;20006;-30
2022/11/13 02:47:49;;;;;;;;;;;8.70;99.90;;;;;;5098053;28;20104;-33
2022/11/13 02:50:15;;;;;;;;;;;8.70;99.90;;;;;;5108670;28;19908;-30
2022/11/13 02:52:41;;;;;;;;;;;8.70;99.90;;;;;;5102321;28;19911;-33
2022/11/13 02:55:06;;;;;;;;;;;8.60;99.90;;;;;;5111102;28;19914;-35
2022/11/13 02:57:32;;;;;;;;;;;8.60;99.90;;;;;;5110872;28;20364;-32
2022/11/13 02:59:57;;;;;;;;;;;8.60;99.90;;;;;;5109371;28;19908;-31
2022/11/13 03:02:23;;;;;;;;;;;8.60;99.90;;;;;;5109893;28;19947;-31
2022/11/13 03:04:48;;;;;;;;;;;8.60;99.90;;;;;;5100735;28;19908;-33
2022/11/13 03:07:14;;;;;;;;;;;8.60;99.90;;;;;;5107878;28;20442;-38
2022/11/13 03:09:39;;;;;;;;;;;8.60;99.90;;;;;;5105684;28;19964;-33
2022/11/13 03:12:09;;;;;;;;;;;8.50;99.90;;;;;;5092826;28;19912;-32
2022/11/13 03:14:34;;;;;;;;;;;8.50;99.90;;;;;;5093704;28;20280;-36
2022/11/13 03:17:00;;;;;;;;;;;8.50;99.90;;;;;;5101422;28;19966;-32
2022/11/13 03:19:25;;;;;;;;;;;8.50;99.90;;;;;;5105027;28;20398;-31
2022/11/13 03:21:51;;;;;;;;;;;8.50;99.90;;;;;;5110562;28;19908;-31
2022/11/13 03:24:16;;;;;;;;;;;8.50;99.90;;;;;;5107831;28;19915;-33
2022/11/13 03:26:42;;;;;;;;;;;8.50;99.90;;;;;;5104542;28;19916;-34
2022/11/13 03:29:07;;;;;;;;;;;8.60;99.90;;;;;;5110529;28;19955;-35
2022/11/13 03:31:33;;;;;;;;;;;8.60;99.90;;;;;;5103427;28;19953;-36
2022/11/13 03:33:59;;;;;;;;;;;8.70;99.90;;;;;;5098795;28;19908;-32
2022/11/13 03:36:24;;;;;;;;;;;9.00;99.90;;;;;;5096539;28;19907;-31
2022/11/13 03:38:50;;;;;;;;;;;9.30;99.90;;;;;;5106146;28;19911;-36
2022/11/13 03:41:15;;;;;;;;;;;9.40;99.90;;;;;;5100833;28;19908;-34
2022/11/13 03:43:41;;;;;;;;;;;9.60;99.90;;;;;;5099127;28;19907;-32
2022/11/13 03:46:06;;;;;;;;;;;9.70;99.90;;;;;;5105751;28;19912;-33
2022/11/13 03:48:32;;;;;;;;;;;9.60;99.90;;;;;;5106711;28;19949;-31
2022/11/13 03:50:58;;;;;;;;;;;9.50;99.90;;;;;;5107285;28;19916;-34
2022/11/13 03:53:23;;;;;;;;;;;9.40;99.90;;;;;;5096588;28;19908;-58
2022/11/13 03:55:49;;;;;;;;;;;9.30;99.90;;;;;;5096582;28;20007;-35
2022/11/13 03:58:14;;;;;;;;;;;9.20;99.90;;;;;;5098838;28;19929;-31
2022/11/13 04:00:40;;;;;;;;;;;9.10;99.90;;;;;;5092618;28;20291;-34
2022/11/13 04:03:06;;;;;;;;;;;9.10;99.90;;;;;;5103572;28;19907;-32
2022/11/13 04:05:32;;;;;;;;;;;9.20;99.90;;;;;;5101795;28;19919;-36
2022/11/13 04:07:57;;;;;;;;;;;9.20;99.90;;;;;;5093623;28;19939;-32
2022/11/13 04:10:23;;;;;;;;;;;9.20;99.90;;;;;;5095133;28;19946;-36
2022/11/13 04:12:49;;;;;;;;;;;9.20;99.90;;;;;;5093727;28;19911;-34
2022/11/13 04:15:14;;;;;;;;;;;9.20;99.90;;;;;;5094083;28;20409;-31
2022/11/13 04:17:40;;;;;;;;;;;9.20;99.90;;;;;;5107980;28;19911;-31
2022/11/13 04:20:06;;;;;;;;;;;9.20;99.90;;;;;;5109736;28;20359;-33
2022/11/13 04:22:31;;;;;;;;;;;9.10;99.90;;;;;;5094434;28;20985;-35
2022/11/13 04:24:57;;;;;;;;;;;9.10;99.90;;;;;;5093628;28;19908;-32
2022/11/13 04:27:22;;;;;;;;;;;9.10;99.90;;;;;;5093461;28;19969;-32
2022/11/13 04:29:47;;;;;;;;;;;9.10;99.90;;;;;;5093289;28;19908;-31
2022/11/13 04:32:13;;;;;;;;;;;9.00;99.90;;;;;;5100329;28;19908;-34
2022/11/13 04:34:38;;;;;;;;;;;9.00;99.90;;;;;;5102043;28;20365;-33
2022/11/13 04:37:04;;;;;;;;;;;8.90;99.90;;;;;;5113009;28;19915;-31
2022/11/13 04:39:29;;;;;;;;;;;8.90;99.90;;;;;;5101370;28;19916;-34
2022/11/13 04:44:39;;;;;;;;;;;8.70;99.90;;;;;;5094454;28;19957;-31
2022/11/13 04:47:04;;;;;;;;;;;8.60;99.90;;;;;;5104162;28;20340;-39
2022/11/13 04:49:30;;;;;;;;;;;8.50;99.90;;;;;;5094402;28;19908;-33
2022/11/13 04:51:55;;;;;;;;;;;8.50;99.90;;;;;;5105374;28;20280;-35
2022/11/13 04:54:21;;;;;;;;;;;8.40;99.90;;;;;;5103433;28;20002;-34
2022/11/13 04:56:46;;;;;;;;;;;8.40;99.90;;;;;;5109355;28;20416;-34
2022/11/13 04:59:12;;;;;;;;;;;8.30;99.90;;;;;;5096336;28;20008;-33
2022/11/13 05:01:37;;;;;;;;;;;8.30;99.90;;;;;;5098343;28;20045;-32
2022/11/13 05:04:03;;;;;;;;;;;8.30;99.90;;;;;;5103126;28;19923;-34
2022/11/13 05:06:29;;;;;;;;;;;8.20;99.90;;;;;;5101223;28;19911;-35
2022/11/13 05:08:54;;;;;;;;;;;8.20;99.90;;;;;;5097304;28;19908;-32
2022/11/13 05:11:20;;;;;;;;;;;8.20;99.90;;;;;;5102676;28;20035;-35
2022/11/13 05:13:45;;;;;;;;;;;8.10;99.90;;;;;;5112285;28;19936;-39
2022/11/13 05:16:12;;;;;;;;;;;8.10;99.90;;;;;;5099325;28;19912;-31
2022/11/13 05:18:38;;;;;;;;;;;8.00;99.90;;;;;;5092683;28;19950;-34
2022/11/13 05:21:07;;;;;;;;;;;7.90;99.90;;;;;;5099957;28;19915;-35
2022/11/13 05:23:33;;;;;;;;;;;7.90;99.90;;;;;;5092234;28;19912;-38
2022/11/13 05:26:03;;;;;;;;;;;7.90;99.90;;;;;;5094067;28;19924;-32
2022/11/13 05:28:29;;;;;;;;;;;7.90;99.90;;;;;;5100799;28;19908;-31
2022/11/13 05:31:01;;;;;;;;;;;7.90;99.90;;;;;;5099960;28;19908;-32
2022/11/13 05:33:27;;;;;;;;;;;7.80;99.90;;;;;;5102158;28;20279;-34
2022/11/13 05:35:53;;;;;;;;;;;7.80;99.90;;;;;;5105348;28;19995;-35
2022/11/13 05:38:18;;;;;;;;;;;7.80;99.90;;;;;;5103632;28;19968;-36
2022/11/13 05:40:43;;;;;;;;;;;7.70;99.90;;;;;;5098620;28;19908;-40
2022/11/13 05:43:09;;;;;;;;;;;7.70;99.90;;;;;;5114856;28;19911;-36
2022/11/13 05:45:34;;;;;;;;;;;7.70;99.90;;;;;;5103129;28;20395;-34
2022/11/13 05:48:00;;;;;;;;;;;7.60;99.90;;;;;;5101178;28;19962;-31
2022/11/13 05:50:25;;;;;;;;;;;7.60;99.90;;;;;;5114443;28;19907;-35
2022/11/13 05:52:51;;;;;;;;;;;7.60;99.90;;;;;;5096573;28;19915;-33
2022/11/13 05:55:16;;;;;;;;;;;7.60;99.90;;;;;;5097142;28;19908;-39
2022/11/13 05:57:42;;;;;;;;;;;7.60;99.90;;;;;;5101425;28;19919;-31
2022/11/13 06:00:08;;;;;;;;;;;7.60;99.90;;;;;;5104118;28;19915;-35
2022/11/13 06:02:34;;;;;;;;;;;7.60;99.90;;;;;;5103534;28;19954;-32
2022/11/13 06:04:59;;;;;;;;;;;7.60;99.90;;;;;;5096074;28;19908;-33
2022/11/13 06:07:25;;;;;;;;;;;7.60;99.90;;;;;;5095192;28;20357;-32
2022/11/13 06:09:50;;;;;;;;;;;7.60;99.90;;;;;;5104979;28;19907;-33
2022/11/13 06:12:16;;;;;;;;;;;7.60;99.90;;;;;;5096591;28;19914;-34
2022/11/13 06:14:41;;;;;;;;;;;7.50;99.90;;;;;;5099859;28;20364;-31
2022/11/13 06:17:07;;;;;;;;;;;7.50;99.90;;;;;;5093864;28;19915;-39
2022/11/13 06:19:32;;;;;;;;;;;7.40;99.90;;;;;;5099445;28;20370;-41
2022/11/13 06:21:58;;;;;;;;;;;7.40;99.90;;;;;;5111265;28;19908;-42
2022/11/13 06:24:23;;;;;;;;;;;7.30;99.90;;;;;;5105010;28;19915;-39
2022/11/13 06:26:48;;;;;;;;;;;7.30;99.90;;;;;;5113858;28;19915;-40
2022/11/13 06:29:14;;;;;;;;;;;7.20;99.90;;;;;;5099014;28;19908;-40
2022/11/13 06:31:40;;;;;;;;;;;7.20;99.90;;;;;;5103333;28;20064;-40
2022/11/13 06:34:05;;;;;;;;;;;7.20;99.90;;;;;;5101062;28;19908;-39
2022/11/13 06:36:32;;;;;;;;;;;7.20;99.90;;;;;;5105509;28;19947;-31
2022/11/13 06:38:58;;;;;;;;;;;7.20;99.90;;;;;;5112501;28;19916;-32
2022/11/13 06:41:25;;;;;;;;;;;7.20;99.90;;;;;;5097332;28;19908;-39
2022/11/13 06:43:50;;;;;;;;;;;7.20;99.90;;;;;;5096118;28;20346;-31
2022/11/13 06:46:23;;;;;;;;;;;7.10;99.90;;;;;;5091990;28;20011;-57
2022/11/13 06:48:49;;;;;;;;;;;7.10;99.90;;;;;;5095990;28;20451;-47
2022/11/13 06:51:16;;;;;;;;;;;7.10;99.90;;;;;;5098958;28;19958;-34
2022/11/13 06:53:41;;;;;;;;;;;7.10;99.90;;;;;;5108792;28;20395;-35
2022/11/13 06:56:07;;;;;;;;;;;7.10;99.90;;;;;;5104689;28;19998;-33
2022/11/13 06:58:32;;;;;;;;;;;7.10;99.90;;;;;;5097716;28;19908;-33
2022/11/13 07:01:03;;;;;;;;;;;7.10;99.90;;;;;;5095826;28;20372;-39
2022/11/13 07:03:29;;;;;;;;;;;7.10;99.90;;;;;;5099898;28;19947;-35
2022/11/13 07:05:54;;;;;;;;;;;7.10;99.90;;;;;;5107944;28;19950;-33
2022/11/13 07:08:20;;;;;;;;;;;7.10;99.90;;;;;;5095015;28;20023;-34
2022/11/13 07:10:53;;;;;;;;;;;7.10;99.90;;;;;;5106258;28;19908;-36
2022/11/13 07:13:19;;;;;;;;;;;7.10;99.90;;;;;;5089925;28;20387;-32
2022/11/13 07:15:44;;;;;;;;;;;7.10;99.90;;;;;;5106186;28;19995;-40
2022/11/13 07:18:10;;;;;;;;;;;7.10;99.90;;;;;;5100521;28;19955;-40
2022/11/13 07:20:35;;;;;;;;;;;7.20;99.90;;;;;;5097698;28;19915;-40
2022/11/13 07:23:02;;;;;;;;;;;7.10;99.90;;;;;;5105018;28;21736;-38
2022/11/13 07:25:28;;;;;;;;;;;7.20;99.90;;;;;;5096620;28;19915;-40
2022/11/13 07:27:54;;;;;;;;;;;7.20;99.90;;;;;;5096976;28;19908;-41
2022/11/13 07:30:19;;;;;;;;;;;7.30;99.90;;;;;;5095230;28;20153;-33
2022/11/13 07:32:45;;;;;;;;;;;7.30;99.90;;;;;;5094467;28;19908;-32
2022/11/13 07:35:11;;;;;;;;;;;7.40;99.90;;;;;;5093542;28;19908;-35
2022/11/13 07:37:36;;;;;;;;;;;7.50;99.90;;;;;;5093171;28;19908;-43
2022/11/13 07:40:03;;;;;;;;;;;7.60;99.90;;;;;;5096173;28;19919;-39
2022/11/13 07:42:28;;;;;;;;;;;7.70;99.90;;;;;;5099644;28;19908;-32
2022/11/13 07:44:54;;;;;;;;;;;7.80;99.90;;;;;;5095565;28;20322;-34
2022/11/13 07:47:19;;;;;;;;;;;7.80;99.90;;;;;;5092743;28;19923;-37
2022/11/13 07:49:45;;;;;;;;;;;7.90;99.90;;;;;;5109924;28;20401;-38
2022/11/13 07:52:10;;;;;;;;;;;8.00;99.90;;;;;;5112972;28;20438;-32
2022/11/13 07:54:36;;;;;;;;;;;8.00;99.90;;;;;;5100634;28;19912;-35
2022/11/13 07:57:02;;;;;;;;;;;8.10;99.90;;;;;;5096229;28;19919;-35
2022/11/13 07:59:27;;;;;;;;;;;8.20;99.90;;;;;;5099201;28;20352;-31
2022/11/13 08:01:53;;;;;;;;;;;8.30;99.90;;;;;;5099576;28;20328;-34
2022/11/13 08:04:18;;;;;;;;;;;8.30;99.90;;;;;;5096522;28;20413;-40
2022/11/13 08:06:44;;;;;;;;;;;8.40;99.90;;;;;;5108387;27;20316;-38
2022/11/13 08:09:09;;;;;;;;;;;8.40;99.90;;;;;;5098935;27;19912;-41
2022/11/13 08:11:35;;;;;;;;;;;8.40;99.90;;;;;;5105614;27;19908;-43
2022/11/13 08:14:00;;;;;;;;;;;8.50;99.90;;;;;;5094621;28;19908;-44
2022/11/13 08:16:26;;;;;;;;;;;8.60;99.90;;;;;;5093851;28;20288;-37
2022/11/13 08:18:51;;;;;;;;;;;8.70;99.90;;;;;;5106365;28;20359;-40
2022/11/13 08:21:17;;;;;;;;;;;8.80;99.90;;;;;;5102331;28;19958;-40
2022/11/13 08:23:43;;;;;;;;;;;8.80;99.90;;;;;;5094693;28;20435;-38
2022/11/13 08:26:08;;;;;;;;;;;8.90;99.90;;;;;;5101466;28;20375;-42
2022/11/13 08:28:34;;;;;;;;;;;9.10;99.90;;;;;;5099769;28;20403;-38
2022/11/13 08:31:00;;;;;;;;;;;9.10;99.90;;;;;;5099933;28;20438;-39
2022/11/13 08:33:26;;;;;;;;;;;9.20;99.90;;;;;;5097854;28;20273;-40
2022/11/13 08:35:55;;;;;;;;;;;9.30;99.90;;;;;;5097924;28;19908;-39
2022/11/13 08:38:21;;;;;;;;;;;9.30;99.90;;;;;;5093536;28;19908;-41
2022/11/13 08:40:47;;;;;;;;;;;9.40;99.90;;;;;;5099148;28;19916;-32
2022/11/13 08:43:12;;;;;;;;;;;9.50;99.90;;;;;;5100708;28;19908;-31
2022/11/13 08:45:38;;;;;;;;;;;9.50;99.90;;;;;;5097288;28;19966;-38
2022/11/13 08:48:04;;;;;;;;;;;9.60;99.90;;;;;;5103215;28;19908;-40
2022/11/13 08:50:30;;;;;;;;;;;9.70;99.90;;;;;;5110735;28;19916;-38
2022/11/13 08:52:56;;;;;;;;;;;9.70;99.90;;;;;;5100235;28;19911;-32
2022/11/13 08:55:21;;;;;;;;;;;9.80;99.90;;;;;;5107489;28;19908;-56
2022/11/13 08:57:47;;;;;;;;;;;9.80;99.90;;;;;;5104328;28;19907;-41
2022/11/13 09:00:13;;;;;;;;;;;9.90;99.90;;;;;;5092348;28;21414;-33
2022/11/13 09:02:38;;;;;;;;;;;10.00;99.90;;;;;;5101608;28;19931;-33
2022/11/13 09:05:04;;;;;;;;;;;10.10;99.90;;;;;;5093946;28;20319;-30
2022/11/13 09:07:30;;;;;;;;;;;10.10;99.90;;;;;;5102445;28;20377;-33
2022/11/13 09:09:55;;;;;;;;;;;10.20;99.90;;;;;;5097478;28;19922;-31
2022/11/13 09:12:21;;;;;;;;;;;10.40;99.90;;;;;;5099848;28;19908;-40
2022/11/13 09:14:46;;;;;;;;;;;10.50;99.90;;;;;;5098772;28;19908;-32
2022/11/13 09:17:12;;;;;;;;;;;10.50;99.90;;;;;;5097052;28;19953;-39
2022/11/13 09:19:37;;;;;;;;;;;10.50;99.90;;;;;;5100128;28;20002;-39
2022/11/13 09:22:03;;;;;;;;;;;10.60;99.90;;;;;;5115327;28;19914;-32
2022/11/13 09:24:28;;;;;;;;;;;10.60;99.90;;;;;;5100293;28;19919;-34
2022/11/13 09:26:54;;;;;;;;;;;10.60;99.90;;;;;;5095650;28;19916;-40
2022/11/13 09:29:20;;;;;;;;;;;10.70;99.90;;;;;;5111719;28;20278;-38
2022/11/13 09:31:45;;;;;;;;;;;10.70;99.90;;;;;;5111740;28;19915;-39
2022/11/13 09:34:11;;;;;;;;;;;10.80;99.90;;;;;;5107718;28;19908;-40
2022/11/13 09:36:36;;;;;;;;;;;10.90;99.90;;;;;;5104220;28;19908;-39
2022/11/13 09:39:03;;;;;;;;;;;11.00;99.90;;;;;;5105183;28;19995;-41
2022/11/13 09:41:30;;;;;;;;;;;11.10;99.90;;;;;;5103054;28;20396;-41
2022/11/13 09:43:59;;;;;;;;;;;11.30;99.90;;;;;;5108813;28;20353;-38
2022/11/13 09:46:24;;;;;;;;;;;11.30;99.90;;;;;;5099473;28;19964;-37
2022/11/13 09:48:53;;;;;;;;;;;11.40;99.90;;;;;;5104460;27;19915;-37
2022/11/13 09:51:21;;;;;;;;;;;11.50;99.90;;;;;;5101739;28;19915;-40
2022/11/13 09:53:47;;;;;;;;;;;11.60;99.90;;;;;;5101161;28;19908;-40
2022/11/13 09:56:32;;;;;;;;;;;11.60;99.90;;;;;;5106554;28;19953;-39
2022/11/13 09:59:07;;;;;;;;;;;11.70;99.90;;;;;;5098965;28;20006;-40
2022/11/13 10:01:38;;;;;;;;;;;11.80;99.90;;;;;;5101524;28;19977;-39
2022/11/13 10:04:06;;;;;;;;;;;11.90;99.90;;;;;;5100505;28;20364;-31
2022/11/13 10:06:34;;;;;;;;;;;12.00;99.90;;;;;;5101697;28;19912;-33
2022/11/13 10:09:02;;;;;;;;;;;12.10;99.90;;;;;;5098249;28;19918;-38
2022/11/13 10:11:35;;;;;;;;;;;12.20;99.90;;;;;;5102070;28;19908;-38
2022/11/13 10:14:04;;;;;;;;;;;12.30;99.90;;;;;;5095196;28;19907;-39
2022/11/13 10:16:32;;;;;;;;;;;12.30;99.90;;;;;;5096015;28;19908;-39
2022/11/13 10:19:05;;;;;;;;;;;12.40;99.90;;;;;;5096907;28;19962;-40
2022/11/13 10:21:41;;;;;;;;;;;12.40;99.90;;;;;;5097581;28;19947;-37
2022/11/13 10:24:12;;;;;;;;;;;12.50;99.90;;;;;;5105237;28;20317;-34
2022/11/13 10:26:38;;;;;;;;;;;12.70;99.90;;;;;;5105295;28;19916;-31
2022/11/13 10:29:17;;;;;;;;;;;12.80;99.90;;;;;;5112013;28;20432;-34
2022/11/13 10:31:46;;;;;;;;;;;12.90;99.90;;;;;;5098679;28;19914;-34
2022/11/13 10:34:13;;;;;;;;;;;13.10;99.90;;;;;;5096116;28;20306;-40
2022/11/13 10:36:48;;;;;;;;;;;13.30;99.90;;;;;;5108167;28;20387;-35
2022/11/13 10:39:13;;;;;;;;;;;13.20;99.90;;;;;;5095787;28;19915;-34
2022/11/13 10:41:47;;;;;;;;;;;13.40;99.90;;;;;;5108487;28;20377;-34
2022/11/13 10:44:22;;;;;;;;;;;13.60;99.90;;;;;;5108481;28;19914;-36
2022/11/13 10:46:48;;;;;;;;;;;13.90;99.90;;;;;;5094552;28;19912;-42
2022/11/13 10:49:21;;;;;;;;;;;14.10;99.90;;;;;;5096046;28;19992;-38
2022/11/13 10:51:56;;;;;;;;;;;14.30;99.90;;;;;;5089889;28;19908;-33
2022/11/13 10:54:26;;;;;;;;;;;14.50;99.90;;;;;;5090305;28;20006;-38
2022/11/13 10:56:56;;;;;;;;;;;14.70;99.90;;;;;;5090819;28;20374;-52
2022/11/13 10:59:21;;;;;;;;;;;14.80;99.90;;;;;;5091342;28;19908;-31
2022/11/13 11:01:48;;;;;;;;;;;14.90;99.90;;;;;;5090531;28;19922;-34
2022/11/13 11:04:23;;;;;;;;;;;15.00;99.90;;;;;;5092362;28;19998;-40
2022/11/13 11:06:49;;;;;;;;;;;15.00;99.90;;;;;;5097829;28;20425;-39
2022/11/13 11:09:20;;;;;;;;;;;14.90;99.90;;;;;;5097367;28;19911;-35
2022/11/13 11:12:20;;;;;;;;;;;15.00;99.90;;;;;;5095334;28;19908;-33
2022/11/13 11:15:00;;;;;;;;;;;15.00;99.90;;;;;;5101121;28;19915;-39
2022/11/13 11:17:52;;;;;;;;;;;15.10;99.40;;;;;;5098239;28;20367;-36
2022/11/13 11:20:19;;;;;;;;;;;15.20;99.00;;;;;;5087224;28;19961;-42
2022/11/13 11:22:45;;;;;;;;;;;15.20;99.20;;;;;;5095084;28;19911;-37
2022/11/13 11:25:23;;;;;;;;;;;15.20;99.00;;;;;;5091737;28;19920;-37
2022/11/13 11:27:59;;;;;;;;;;;15.20;99.00;;;;;;5096566;28;19968;-37
2022/11/13 11:30:25;;;;;;;;;;;15.30;99.30;;;;;;5094686;28;20011;-40
2022/11/13 11:32:55;;;;;;;;;;;15.40;98.90;;;;;;5094625;28;19989;-38
2022/11/13 11:35:23;;;;;;;;;;;15.40;99.20;;;;;;5106178;27;19914;-33
2022/11/13 11:38:07;;;;;;;;;;;15.50;99.20;;;;;;5090406;28;19912;-33
2022/11/13 11:40:38;;;;;;;;;;;15.60;99.70;;;;;;5104744;27;20415;-33
2022/11/13 11:43:19;;;;;;;;;;;15.60;99.90;;;;;;5095806;28;20316;-33
2022/11/13 11:45:46;;;;;;;;;;;15.80;99.80;;;;;;5094240;28;19915;-35
2022/11/13 11:48:17;;;;;;;;;;;16.00;99.90;;;;;;5089944;28;19908;-40
2022/11/13 11:50:46;;;;;;;;;;;16.10;99.20;;;;;;5100306;28;19907;-32
2022/11/13 11:53:35;;;;;;;;;;;16.20;99.00;;;;;;5108690;27;19911;-37
2022/11/13 11:56:22;;;;;;;;;;;16.20;99.00;;;;;;5068064;28;19908;-32
2022/11/13 11:58:54;;;;;;;;;;;16.20;99.20;;;;;;5086707;28;19914;-32
2022/11/13 12:01:25;;;;;;;;;;;16.20;98.30;;;;;;5110669;28;20398;-32
2022/11/13 12:03:51;;;;;;;;;;;16.20;98.20;;;;;;5105063;28;20375;-31
2022/11/13 12:06:16;;;;;;;;;;;16.10;98.50;;;;;;5103798;28;19919;-35
2022/11/13 12:08:48;;;;;;;;;;;16.10;98.60;;;;;;5098902;28;19916;-33
2022/11/13 12:11:23;;;;;;;;;;;16.10;98.70;;;;;;5097376;28;19915;-35
2022/11/13 12:14:24;;;;;;;;;;;16.20;98.80;;;;;;5103460;28;19999;-30
2022/11/13 12:17:08;;;;;;;;;;;16.30;98.80;;;;;;5040227;28;20003;-31
2022/11/13 12:19:33;;;;;;;;;;;16.40;99.10;;;;;;5094960;28;19914;-37
2022/11/13 12:21:59;;;;;;;;;;;16.50;98.70;;;;;;5112574;27;19916;-34
2022/11/13 12:24:33;;;;;;;;;;;16.50;98.90;;;;;;5119603;27;20284;-31
2022/11/13 12:27:25;;;;;;;;;;;16.60;98.60;;;;;;5114174;27;19954;-41
2022/11/13 12:29:55;;;;;;;;;;;16.60;98.90;;;;;;5121175;27;19908;-30
2022/11/13 12:32:39;;;;;;;;;;;16.60;98.60;;;;;;5112352;27;19911;-39
2022/11/13 12:35:16;;;;;;;;;;;16.70;98.80;;;;;;5118293;27;20359;-32
2022/11/13 12:37:42;;;;;;;;;;;16.70;98.80;;;;;;5119204;27;20464;-50
2022/11/13 12:40:28;;;;;;;;;;;16.80;98.90;;;;;;5112560;27;20038;-35
2022/11/13 12:43:12;;;;;;;;;;;16.90;98.00;;;;;;5106295;27;20397;-39
2022/11/13 12:45:38;;;;;;;;;;;16.90;97.40;;;;;;5110244;27;20309;-34
2022/11/13 12:48:15;;;;;;;;;;;17.00;97.80;;;;;;5102341;28;19911;-47
2022/11/13 12:50:41;;;;;;;;;;;17.00;98.10;;;;;;5116467;28;20416;-33
2022/11/13 12:53:10;;;;;;;;;;;17.00;97.80;;;;;;5099025;28;19908;-34
2022/11/13 12:55:37;;;;;;;;;;;17.00;97.80;;;;;;5097530;28;19907;-31
2022/11/13 12:58:29;;;;;;;;;;;17.00;98.00;;;;;;5109700;28;19952;-31
2022/11/13 13:00:57;;;;;;;;;;;17.10;98.30;;;;;;5101012;28;19908;-37
2022/11/13 13:03:41;;;;;;;;;;;17.20;98.20;;;;;;5115302;28;19908;-39
2022/11/13 13:06:25;;;;;;;;;;;17.20;98.40;;;;;;5095170;28;20383;-43
2022/11/13 13:09:02;;;;;;;;;;;17.30;98.60;;;;;;5104277;28;19915;-42
2022/11/13 13:11:35;;;;;;;;;;;17.40;98.30;;;;;;5105274;28;19952;-39
2022/11/13 13:14:15;;;;;;;;;;;17.50;98.50;;;;;;5093600;28;19915;-40
2022/11/13 13:16:41;;;;;;;;;;;17.50;98.60;;;;;;5094649;28;19950;-41
2022/11/13 13:19:21;;;;;;;;;;;17.50;98.60;;;;;;5093125;28;19908;-40
2022/11/13 13:21:47;;;;;;;;;;;17.60;98.40;;;;;;5093564;28;20413;-40
2022/11/13 13:24:27;;;;;;;;;;;17.60;98.70;;;;;;5098841;28;20090;-50
2022/11/13 13:26:53;;;;;;;;;;;17.60;99.30;;;;;;5104391;28;19915;-41
2022/11/13 13:29:25;;;;;;;;;;;17.60;99.40;;;;;;5104949;28;20364;-40
2022/11/13 13:32:01;;;;;;;;;;;17.70;99.40;;;;;;5094700;28;19908;-33
2022/11/13 13:34:36;;;;;;;;;;;17.80;99.40;;;;;;5102433;28;19915;-38
2022/11/13 13:37:07;;;;;;;;;;;17.80;99.40;;;;;;5103477;28;19911;-38
2022/11/13 13:39:55;;;;;;;;;;;17.90;99.50;;;;;;5100184;28;19962;-35
2022/11/13 13:42:50;;;;;;;;;;;17.90;99.60;;;;;;5095326;28;19908;-51
2022/11/13 13:45:25;;;;;;;;;;;17.90;99.60;;;;;;5087374;28;19908;-41
2022/11/13 13:47:52;;;;;;;;;;;17.90;99.70;;;;;;5112473;28;20309;-47
2022/11/13 13:50:23;;;;;;;;;;;17.90;99.70;;;;;;5112975;28;19994;-41
2022/11/13 13:52:49;;;;;;;;;;;17.90;99.50;;;;;;5098794;28;19911;-40
2022/11/13 13:55:17;;;;;;;;;;;17.90;99.90;;;;;;5105489;28;20378;-43
2022/11/13 13:57:43;;;;;;;;;;;17.80;99.50;;;;;;5103432;28;20393;-39
2022/11/13 14:00:12;;;;;;;;;;;17.80;99.90;;;;;;5098967;27;19908;-40
2022/11/13 14:02:46;;;;;;;;;;;17.80;99.70;;;;;;5117047;27;19911;-40
2022/11/13 14:05:28;;;;;;;;;;;17.80;99.70;;;;;;5125355;27;19907;-44
2022/11/13 14:07:56;;;;;;;;;;;17.70;99.90;;;;;;5124869;27;20303;-43
2022/11/13 14:10:22;;;;;;;;;;;17.70;99.90;;;;;;5111720;27;19914;-41
2022/11/13 14:12:48;;;;;;;;;;;17.60;99.90;;;;;;5105163;27;19908;-39
2022/11/13 14:15:37;;;;;;;;;;;17.60;99.90;;;;;;5123403;27;19911;-44
2022/11/13 14:18:05;;;;;;;;;;;17.70;99.60;;;;;;5119781;27;19903;-39
2022/11/13 14:20:44;;;;;;;;;;;17.60;99.90;;;;;;5126921;27;20362;-43
2022/11/13 14:23:11;;;;;;;;;;;17.60;99.80;;;;;;5116755;27;19932;-41
2022/11/13 14:25:37;;;;;;;;;;;17.70;99.50;;;;;;5114977;27;19907;-42
2022/11/13 14:28:03;;;;;;;;;;;17.80;99.10;;;;;;5120275;27;20268;-40
2022/11/13 14:30:29;;;;;;;;;;;17.70;99.60;;;;;;5095206;28;19908;-42
2022/11/13 14:36:13;;;;;;;;;;;17.80;98.50;;;;;;5095187;28;20364;-32
2022/11/13 14:38:40;;;;;;;;;;;17.80;98.30;;;;;;5095380;28;20368;-31